Flight Track Log - Related Links

Times and Time Zones

All times are in EDT time to prevent confusion due to time zone crossing. See the EJA929 flight status page for this flight to view local times or setup timezone preferences in your user account.

Time Position Orientation Groundspeed Altitude Reporting Facility
EDT Latitude Longitude Course Direction KTS MPH feet Rate Location/Type
Wed 11:10:59 AM 37.4167 -121.9667 345° North 234 269 3,400  Level Northern Cal TRACON
Wed 11:11:59 AM 37.3833 -121.9000 122° Southeast 214 246 5,000 2,050 Climbing Northern Cal TRACON
Wed 11:12:59 AM 37.3333 -121.8500 142° Southeast 233 268 7,500 2,050 Climbing Northern Cal TRACON
Wed 11:13:59 AM 37.2833 -121.8500 180° South 294 338 9,100 1,843 Climbing Northern Cal TRACON
Wed 11:15:06 AM 37.3386 -121.9144 317° Northwest 293 337 11,400 1,734 Climbing Oakland Center
Wed 11:16:07 AM 37.4194 -121.8906 13° North 311 358 12,800 976 Climbing Oakland Center
Wed 11:17:09 AM 37.4828 -121.8000 49° Northeast 349 402 13,400 780 Climbing Oakland Center
Wed 11:18:10 AM 37.5544 -121.7044 47° Northeast 370 426 14,400 1,073 Climbing Oakland Center
Wed 11:19:12 AM 37.6278 -121.6050 47° Northeast 383 441 15,600 1,268 Climbing Oakland Center
Wed 11:20:13 AM 37.7211 -121.4814 46° Northeast 397 457 17,000 1,279 Climbing Oakland Center
Wed 11:21:14 AM 37.7992 -121.3772 47° Northeast 407 468 18,200 1,220 Climbing Oakland Center
Wed 11:22:16 AM 37.8783 -121.2694 47° Northeast 418 481 19,500 1,268 Climbing Oakland Center
Wed 11:23:17 AM 37.9194 -121.1339 69° East 423 487 20,800 1,328 Climbing Oakland Center
Wed 11:24:18 AM 37.9447 -120.9894 77° East 423 487 22,200 1,268 Climbing Oakland Center
Wed 11:25:20 AM 37.9694 -120.8428 78° East 429 494 23,400 1,220 Climbing Oakland Center
Wed 11:26:21 AM 37.9944 -120.6939 78° East 434 499 24,700 1,171 Climbing Oakland Center
Wed 11:27:23 AM 38.0203 -120.5428 78° East 440 506 25,800 1,171 Climbing Oakland Center
Wed 11:28:24 AM 38.0503 -120.3589 78° East 444 511 27,100 1,131 Climbing Oakland Center
Wed 11:29:25 AM 38.0769 -120.2003 78° East 453 521 28,100 1,024 Climbing Oakland Center
Wed 11:30:27 AM 38.1047 -120.0378 78° East 465 535 29,200 1,024 Climbing Oakland Center
Wed 11:31:28 AM 38.1317 -119.8769 78° East 466 536 30,200 927 Climbing Oakland Center
Wed 11:32:30 AM 38.1561 -119.7128 79° East 471 542 31,100 927 Climbing Oakland Center
Wed 11:33:31 AM 38.1836 -119.5461 78° East 479 551 32,100 1,073 Climbing Oakland Center
Wed 11:34:33 AM 38.2131 -119.3639 78° East 493 567 33,300 1,415 Climbing Oakland Center
Wed 11:35:34 AM 38.2386 -119.1950 79° East 489 563 35,000 1,024 Climbing Oakland Center
Wed 11:36:36 AM 38.2622 -119.0231 80° East 498 573 35,400 683 Climbing Oakland Center
Wed 11:37:37 AM 38.2669 -118.8475 88° East 498 573 36,400 1,024 Climbing Oakland Center
Wed 11:38:39 AM 38.2692 -118.6347 89° East 503 579 37,500 1,024 Climbing Oakland Center
Wed 11:39:40 AM 38.2717 -118.4586 89° East 502 578 38,500 732 Climbing Oakland Center
Wed 11:40:42 AM 38.2731 -118.2839 89° East 499 574 39,000 244 Climbing Oakland Center
Wed 11:41:43 AM 38.2750 -118.1031 89° East 504 580 39,000 492 Level Oakland Center
Wed 11:42:44 AM 38.2764 -117.9233 89° East 508 585 40,000 927 Climbing Oakland Center
Wed 11:43:46 AM 38.2778 -117.7447 89° East 505 581 40,900 550 Climbing Oakland Center
Wed 11:44:33 AM 38.2789 -117.6025 89° East 504 580 41,000 55 Climbing Salt Lake Center
Wed 11:45:35 AM 38.2797 -117.4211 90° East 508 585 41,000  Level Salt Lake Center
Wed 11:46:50 AM 38.2803 -117.1753 90° East 512 589 41,000  Level Oakland Center
Wed 11:47:39 AM 38.2806 -117.0469 90° East 520 598 41,000  Level Salt Lake Center
Wed 11:48:41 AM 38.2797 -116.8625 90° East 517 595 41,000  Level Salt Lake Center
Wed 11:49:43 AM 38.2783 -116.6789 90° East 516 594 41,000  Level Salt Lake Center
Wed 11:50:45 AM 38.2781 -116.4583 90° East 520 598 41,000  Level Salt Lake Center
Wed 11:51:47 AM 38.2772 -116.2736 90° East 520 598 41,000  Level Salt Lake Center
Wed 11:52:49 AM 38.2753 -116.0903 91° East 519 597 41,000  Level Salt Lake Center
Wed 11:53:51 AM 38.2722 -115.9075 91° East 518 596 41,000  Level Salt Lake Center
Wed 11:54:53 AM 38.2703 -115.7228 91° East 521 600 41,000  Level Salt Lake Center
Wed 11:55:55 AM 38.2678 -115.5392 91° East 520 598 41,000  Level Salt Lake Center
Wed 11:56:57 AM 38.2672 -115.3189 90° East 520 598 41,000  Level Salt Lake Center
Wed 11:58:00 AM 38.2631 -115.1272 92° East 525 604 41,000  Level Salt Lake Center
Wed 11:59:01 AM 38.2589 -114.9433 92° East 522 601 41,000  Level Salt Lake Center
Wed 12:00:03 PM 38.2536 -114.7581 92° East 524 603 41,000  Level Salt Lake Center
Wed 12:01:05 PM 38.2539 -114.5722 90° East 526 605 41,000  Level Salt Lake Center
Wed 12:02:08 PM 38.2506 -114.3864 91° East 527 606 41,000  Level Salt Lake Center
Wed 12:03:10 PM 38.2658 -114.2019 84° East 525 604 41,000  Level Salt Lake Center
Wed 12:04:12 PM 38.2811 -114.0192 84° East 521 600 41,000  Level Salt Lake Center
Wed 12:05:14 PM 38.2989 -113.8003 84° East 517 595 41,000  Level Salt Lake Center
Wed 12:06:16 PM 38.3142 -113.6172 84° East 517 595 41,000  Level Salt Lake Center
Wed 12:07:18 PM 38.3283 -113.4350 84° East 516 594 41,000  Level Salt Lake Center
Wed 12:08:20 PM 38.3433 -113.2519 84° East 517 595 41,000  Level Salt Lake Center
Wed 12:09:22 PM 38.3572 -113.0669 84° East 522 601 41,000  Level Salt Lake Center
Wed 12:10:24 PM 38.3836 -112.8850 79° East 522 601 41,000  Level Salt Lake Center
Wed 12:11:26 PM 38.4172 -112.7069 76° East 518 596 41,000  Level Salt Lake Center
Wed 12:12:28 PM 38.4569 -112.4928 77° East 516 594 41,000  Level Salt Lake Center
Wed 12:13:30 PM 38.4897 -112.3158 77° East 514 592 41,000  Level Salt Lake Center
Wed 12:14:32 PM 38.5217 -112.1369 77° East 515 593 41,000  Level Salt Lake Center
Wed 12:15:34 PM 38.5528 -111.9572 77° East 517 595 41,000  Level Salt Lake Center
Wed 12:16:36 PM 38.5853 -111.7781 77° East 518 596 41,000  Level Salt Lake Center
Wed 12:17:38 PM 38.6158 -111.5986 78° East 517 595 41,000  Level Salt Lake Center
Wed 12:18:40 PM 38.6533 -111.3836 77° East 517 595 41,000  Level Salt Lake Center
Wed 12:19:42 PM 38.6814 -111.2067 78° East 511 588 41,000  Level Salt Lake Center
Wed 12:20:44 PM 38.7114 -111.0311 78° East 508 585 41,000  Level Salt Lake Center
Wed 12:21:46 PM 38.7372 -110.8547 79° East 508 585 41,000  Level Salt Lake Center
Wed 12:23:50 PM 38.7975 -110.4861 78° East 511 588 41,000  Level Salt Lake Center
Wed 12:24:52 PM 38.8303 -110.2900 78° East 506 582 41,000  Level Salt Lake Center
Wed 12:25:55 PM 38.8564 -110.1217 79° East 504 580 41,000  Level Salt Lake Center
Wed 12:26:56 PM 38.8872 -109.9281 78° East 499 574 41,000  Level Salt Lake Center
Wed 12:27:58 PM 38.9136 -109.7611 78° East 499 574 41,000  Level Salt Lake Center
Wed 12:29:00 PM 38.9433 -109.5683 79° East 495 570 41,000  Level Salt Lake Center
Wed 12:30:02 PM 38.9603 -109.4006 83° East 495 570 41,000 -532 Level Salt Lake Center
Wed 12:31:04 PM 38.9742 -109.2022 85° East 499 574 39,900 -903 Descending Salt Lake Center
Wed 12:31:35 PM 38.9758 -109.1711 86° East 502 578 39,600 -1,419 Descending Denver Center
Wed 12:32:37 PM 38.9931 -108.9428 84° East 503 579 37,700 -1,680 Descending Denver Center
Wed 12:33:40 PM 39.0081 -108.7433 84° East 505 581 36,100 -816 Descending Denver Center
Wed 12:34:42 PM 39.0197 -108.5783 85° East 492 566 36,000 -48 Descending Denver Center
Wed 12:35:44 PM 39.0325 -108.3878 85° East 485 558 36,000  Level Denver Center
Wed 12:36:46 PM 39.0442 -108.2181 85° East 503 579 36,000  Level Denver Center
Wed 12:37:48 PM 39.0572 -108.0158 85° East 510 587 36,000 -774 Level Denver Center
Wed 12:38:50 PM 39.0694 -107.8403 85° East 515 593 34,400 -2,177 Descending Denver Center
Wed 12:39:52 PM 39.0772 -107.6472 87° East 490 564 31,500 -2,806 Descending Denver Center
Wed 12:40:54 PM 39.0761 -107.4897 90° East 468 539 28,600 -3,048 Descending Denver Center
Wed 12:41:56 PM 39.0778 -107.3178 89° East 439 505 25,200 -3,048 Descending Denver Center
Wed 12:42:58 PM 39.0808 -107.1808 88° East 410 472 22,300 -2,758 Descending Denver Center
Wed 12:44:00 PM 39.0850 -107.0550 88° East 388 447 19,500 -2,661 Descending Denver Center
Wed 12:45:02 PM 39.1133 -106.9133 76° East 354 407 16,800 -1,258 Descending Denver Center
Wed 12:46:04 PM 39.1678 -106.8417 46° Northeast 293 337 16,900  Climbing Denver Center
Wed 12:47:07 PM 39.2244 -106.7894 36° Northeast 268 308 16,800 -1,248 Descending Denver Center
Wed 12:48:09 PM 39.2864 -106.7889 360° North 225 259 14,300 -1,403 Descending Denver Center
Wed 12:49:11 PM 39.3500 -106.7861 North 229 264 13,900 -1,161 Descending Denver Center
Wed 12:50:13 PM 39.3611 -106.8536 282° West 242 278 11,900 -2,371 Descending Denver Center
Wed 12:51:15 PM 39.3022 -106.8975 210° Southwest 206 237 9,000 -1,694 Descending Denver Center
Wed 12:52:17 PM 39.2622 -106.8928 175° South 186 214 8,400 -581 Descending Denver Center

Login

Don't have an account? Register now (free) for customized features, flight alerts, and more!